sensor_id;sensor_type;location;lat;lon;timestamp;temperature;humidity
24146;DHT22;12308;50.948;4.706;2024-02-21T00:01:46;11.10;99.90
24146;DHT22;12308;50.948;4.706;2024-02-21T00:04:12;11.00;99.90
24146;DHT22;12308;50.948;4.706;2024-02-21T00:06:37;11.00;99.90
24146;DHT22;12308;50.948;4.706;2024-02-21T00:09:03;11.10;99.90
24146;DHT22;12308;50.948;4.706;2024-02-21T00:11:29;11.00;99.90
24146;DHT22;12308;50.948;4.706;2024-02-21T00:13:55;11.00;99.90
24146;DHT22;12308;50.948;4.706;2024-02-21T00:16:20;11.10;99.90
24146;DHT22;12308;50.948;4.706;2024-02-21T00:18:46;11.20;99.90
24146;DHT22;12308;50.948;4.706;2024-02-21T00:21:12;11.10;99.90
24146;DHT22;12308;50.948;4.706;2024-02-21T00:23:43;11.10;99.90
24146;DHT22;12308;50.948;4.706;2024-02-21T00:26:11;11.10;99.90
24146;DHT22;12308;50.948;4.706;2024-02-21T00:28:38;11.10;99.90
24146;DHT22;12308;50.948;4.706;2024-02-21T00:31:03;11.10;99.90
24146;DHT22;12308;50.948;4.706;2024-02-21T00:33:29;11.20;99.90
24146;DHT22;12308;50.948;4.706;2024-02-21T00:35:54;11.20;99.90
24146;DHT22;12308;50.948;4.706;2024-02-21T00:38:20;11.10;99.90
24146;DHT22;12308;50.948;4.706;2024-02-21T00:40:46;11.10;99.90
24146;DHT22;12308;50.948;4.706;2024-02-21T00:43:11;11.00;99.90
24146;DHT22;12308;50.948;4.706;2024-02-21T00:45:37;10.90;99.90
24146;DHT22;12308;50.948;4.706;2024-02-21T00:48:03;11.00;99.90
24146;DHT22;12308;50.948;4.706;2024-02-21T00:50:29;11.10;99.90
24146;DHT22;12308;50.948;4.706;2024-02-21T00:52:55;11.10;99.90
24146;DHT22;12308;50.948;4.706;2024-02-21T00:55:21;11.00;99.90
24146;DHT22;12308;50.948;4.706;2024-02-21T00:57:46;10.80;99.90
24146;DHT22;12308;50.948;4.706;2024-02-21T01:00:12;10.90;99.90
24146;DHT22;12308;50.948;4.706;2024-02-21T01:02:38;11.00;99.90
24146;DHT22;12308;50.948;4.706;2024-02-21T01:05:04;11.00;99.90
24146;DHT22;12308;50.948;4.706;2024-02-21T01:07:30;11.10;99.90
24146;DHT22;12308;50.948;4.706;2024-02-21T01:09:55;11.00;99.90
24146;DHT22;12308;50.948;4.706;2024-02-21T01:12:21;11.00;99.90
24146;DHT22;12308;50.948;4.706;2024-02-21T01:14:47;10.90;99.90
24146;DHT22;12308;50.948;4.706;2024-02-21T01:17:13;10.90;99.90
24146;DHT22;12308;50.948;4.706;2024-02-21T01:19:38;11.00;99.90
24146;DHT22;12308;50.948;4.706;2024-02-21T01:22:04;11.10;99.90
24146;DHT22;12308;50.948;4.706;2024-02-21T01:24:30;11.10;99.90
24146;DHT22;12308;50.948;4.706;2024-02-21T01:26:55;11.00;99.90
24146;DHT22;12308;50.948;4.706;2024-02-21T01:29:21;10.90;99.90
24146;DHT22;12308;50.948;4.706;2024-02-21T01:31:47;10.80;99.90
24146;DHT22;12308;50.948;4.706;2024-02-21T01:34:13;10.80;99.90
24146;DHT22;12308;50.948;4.706;2024-02-21T01:36:39;10.80;99.90
24146;DHT22;12308;50.948;4.706;2024-02-21T01:39:04;10.90;99.90
24146;DHT22;12308;50.948;4.706;2024-02-21T01:41:30;11.00;99.90
24146;DHT22;12308;50.948;4.706;2024-02-21T01:43:56;11.10;99.90
24146;DHT22;12308;50.948;4.706;2024-02-21T01:46:23;11.00;99.90
24146;DHT22;12308;50.948;4.706;2024-02-21T01:48:49;11.10;99.90
24146;DHT22;12308;50.948;4.706;2024-02-21T01:51:15;11.00;99.90
24146;DHT22;12308;50.948;4.706;2024-02-21T01:53:45;11.00;99.90
24146;DHT22;12308;50.948;4.706;2024-02-21T01:56:12;10.90;99.90
24146;DHT22;12308;50.948;4.706;2024-02-21T01:58:40;10.70;99.90
24146;DHT22;12308;50.948;4.706;2024-02-21T02:01:07;10.80;99.90
24146;DHT22;12308;50.948;4.706;2024-02-21T02:03:32;10.70;99.90
24146;DHT22;12308;50.948;4.706;2024-02-21T02:05:58;10.80;99.90
24146;DHT22;12308;50.948;4.706;2024-02-21T02:08:24;10.80;99.90
24146;DHT22;12308;50.948;4.706;2024-02-21T02:10:51;10.70;99.90
24146;DHT22;12308;50.948;4.706;2024-02-21T02:13:17;10.70;99.90
24146;DHT22;12308;50.948;4.706;2024-02-21T02:15:47;10.70;99.90
24146;DHT22;12308;50.948;4.706;2024-02-21T02:18:14;10.90;99.90
24146;DHT22;12308;50.948;4.706;2024-02-21T02:20:40;11.00;99.90
24146;DHT22;12308;50.948;4.706;2024-02-21T02:25:39;11.00;99.90
24146;DHT22;12308;50.948;4.706;2024-02-21T02:28:08;10.90;99.90
24146;DHT22;12308;50.948;4.706;2024-02-21T02:30:36;10.90;99.90
24146;DHT22;12308;50.948;4.706;2024-02-21T02:33:03;11.10;99.90
24146;DHT22;12308;50.948;4.706;2024-02-21T02:35:29;11.10;99.90
24146;DHT22;12308;50.948;4.706;2024-02-21T02:37:55;10.90;99.90
24146;DHT22;12308;50.948;4.706;2024-02-21T02:40:21;10.90;99.90
24146;DHT22;12308;50.948;4.706;2024-02-21T02:42:47;10.90;99.90
24146;DHT22;12308;50.948;4.706;2024-02-21T02:45:15;10.90;99.90
24146;DHT22;12308;50.948;4.706;2024-02-21T02:47:41;10.90;99.90
24146;DHT22;12308;50.948;4.706;2024-02-21T02:50:07;10.80;99.90
24146;DHT22;12308;50.948;4.706;2024-02-21T02:52:33;10.80;99.90
24146;DHT22;12308;50.948;4.706;2024-02-21T02:54:59;10.80;99.90
24146;DHT22;12308;50.948;4.706;2024-02-21T02:57:24;10.80;99.90
24146;DHT22;12308;50.948;4.706;2024-02-21T02:59:51;11.00;99.90
24146;DHT22;12308;50.948;4.706;2024-02-21T03:02:17;10.90;99.90
24146;DHT22;12308;50.948;4.706;2024-02-21T03:04:43;11.00;99.90
24146;DHT22;12308;50.948;4.706;2024-02-21T03:07:09;10.90;99.90
24146;DHT22;12308;50.948;4.706;2024-02-21T03:09:37;10.80;99.90
24146;DHT22;12308;50.948;4.706;2024-02-21T03:12:04;10.70;99.90
24146;DHT22;12308;50.948;4.706;2024-02-21T03:14:30;10.70;99.90
24146;DHT22;12308;50.948;4.706;2024-02-21T03:16:56;10.70;99.90
24146;DHT22;12308;50.948;4.706;2024-02-21T03:19:22;10.70;99.90
24146;DHT22;12308;50.948;4.706;2024-02-21T03:21:48;10.70;99.90
24146;DHT22;12308;50.948;4.706;2024-02-21T03:24:16;10.60;99.90
24146;DHT22;12308;50.948;4.706;2024-02-21T03:26:41;10.60;99.90
24146;DHT22;12308;50.948;4.706;2024-02-21T03:29:07;10.50;99.90
24146;DHT22;12308;50.948;4.706;2024-02-21T03:31:34;10.50;99.90
24146;DHT22;12308;50.948;4.706;2024-02-21T03:34:00;10.50;99.90
24146;DHT22;12308;50.948;4.706;2024-02-21T03:36:26;10.50;99.90
24146;DHT22;12308;50.948;4.706;2024-02-21T03:38:52;10.60;99.90
24146;DHT22;12308;50.948;4.706;2024-02-21T03:41:17;10.50;99.90
24146;DHT22;12308;50.948;4.706;2024-02-21T03:43:43;10.60;99.90
24146;DHT22;12308;50.948;4.706;2024-02-21T03:46:09;10.60;99.90
24146;DHT22;12308;50.948;4.706;2024-02-21T03:48:35;10.60;99.90
24146;DHT22;12308;50.948;4.706;2024-02-21T03:51:01;10.60;99.90
24146;DHT22;12308;50.948;4.706;2024-02-21T03:53:26;10.60;99.90
24146;DHT22;12308;50.948;4.706;2024-02-21T03:55:52;10.70;99.90
24146;DHT22;12308;50.948;4.706;2024-02-21T03:58:17;10.70;99.90
24146;DHT22;12308;50.948;4.706;2024-02-21T04:00:43;10.70;99.90
24146;DHT22;12308;50.948;4.706;2024-02-21T04:03:09;10.80;99.90
24146;DHT22;12308;50.948;4.706;2024-02-21T04:05:34;10.80;99.90
24146;DHT22;12308;50.948;4.706;2024-02-21T04:08:04;10.80;99.90
24146;DHT22;12308;50.948;4.706;2024-02-21T04:10:30;10.70;99.90
24146;DHT22;12308;50.948;4.706;2024-02-21T04:12:56;10.50;99.90
24146;DHT22;12308;50.948;4.706;2024-02-21T04:15:21;10.50;99.90
24146;DHT22;12308;50.948;4.706;2024-02-21T04:17:47;10.50;99.90
24146;DHT22;12308;50.948;4.706;2024-02-21T04:20:15;10.60;99.90
24146;DHT22;12308;50.948;4.706;2024-02-21T04:22:43;10.70;99.90
24146;DHT22;12308;50.948;4.706;2024-02-21T04:25:09;10.60;99.90
24146;DHT22;12308;50.948;4.706;2024-02-21T04:27:37;10.60;99.90
24146;DHT22;12308;50.948;4.706;2024-02-21T04:30:03;10.60;99.90
24146;DHT22;12308;50.948;4.706;2024-02-21T04:32:29;10.50;99.90
24146;DHT22;12308;50.948;4.706;2024-02-21T04:34:55;10.50;99.90
24146;DHT22;12308;50.948;4.706;2024-02-21T04:37:21;10.50;99.90
24146;DHT22;12308;50.948;4.706;2024-02-21T04:39:48;10.50;99.90
24146;DHT22;12308;50.948;4.706;2024-02-21T04:42:13;10.60;99.90
24146;DHT22;12308;50.948;4.706;2024-02-21T04:44:39;10.50;99.90
24146;DHT22;12308;50.948;4.706;2024-02-21T04:47:05;10.50;99.90
24146;DHT22;12308;50.948;4.706;2024-02-21T04:49:30;10.50;99.90
24146;DHT22;12308;50.948;4.706;2024-02-21T04:51:56;10.50;99.90
24146;DHT22;12308;50.948;4.706;2024-02-21T04:54:22;10.50;99.90
24146;DHT22;12308;50.948;4.706;2024-02-21T04:56:47;10.40;99.90
24146;DHT22;12308;50.948;4.706;2024-02-21T04:59:13;10.40;99.90
24146;DHT22;12308;50.948;4.706;2024-02-21T05:01:39;10.40;99.90
24146;DHT22;12308;50.948;4.706;2024-02-21T05:04:04;10.60;99.90
24146;DHT22;12308;50.948;4.706;2024-02-21T05:06:30;10.40;99.90
24146;DHT22;12308;50.948;4.706;2024-02-21T05:08:56;10.30;99.90
24146;DHT22;12308;50.948;4.706;2024-02-21T05:11:23;10.40;99.90
24146;DHT22;12308;50.948;4.706;2024-02-21T05:13:50;10.40;99.90
24146;DHT22;12308;50.948;4.706;2024-02-21T05:16:15;10.30;99.90
24146;DHT22;12308;50.948;4.706;2024-02-21T05:18:41;10.40;99.90
24146;DHT22;12308;50.948;4.706;2024-02-21T05:21:08;10.50;99.90
24146;DHT22;12308;50.948;4.706;2024-02-21T05:23:33;10.40;99.90
24146;DHT22;12308;50.948;4.706;2024-02-21T05:25:59;10.30;99.90
24146;DHT22;12308;50.948;4.706;2024-02-21T05:28:25;10.40;99.90
24146;DHT22;12308;50.948;4.706;2024-02-21T05:30:50;10.40;99.90
24146;DHT22;12308;50.948;4.706;2024-02-21T05:33:16;10.50;99.90
24146;DHT22;12308;50.948;4.706;2024-02-21T05:35:47;10.40;99.90
24146;DHT22;12308;50.948;4.706;2024-02-21T05:38:15;10.40;99.90
24146;DHT22;12308;50.948;4.706;2024-02-21T05:40:41;10.40;99.90
24146;DHT22;12308;50.948;4.706;2024-02-21T05:43:07;10.40;99.90
24146;DHT22;12308;50.948;4.706;2024-02-21T05:45:33;10.40;99.90
24146;DHT22;12308;50.948;4.706;2024-02-21T05:47:59;10.50;99.90
24146;DHT22;12308;50.948;4.706;2024-02-21T05:50:25;10.60;99.90
24146;DHT22;12308;50.948;4.706;2024-02-21T05:52:55;10.60;99.90
24146;DHT22;12308;50.948;4.706;2024-02-21T05:55:21;10.50;99.90
24146;DHT22;12308;50.948;4.706;2024-02-21T05:57:47;10.50;99.90
24146;DHT22;12308;50.948;4.706;2024-02-21T06:00:14;10.50;99.90
24146;DHT22;12308;50.948;4.706;2024-02-21T06:02:40;10.40;99.90
24146;DHT22;12308;50.948;4.706;2024-02-21T06:05:06;10.50;99.90
24146;DHT22;12308;50.948;4.706;2024-02-21T06:07:35;10.40;99.90
24146;DHT22;12308;50.948;4.706;2024-02-21T06:10:03;10.50;99.90
24146;DHT22;12308;50.948;4.706;2024-02-21T06:12:29;10.70;99.90
24146;DHT22;12308;50.948;4.706;2024-02-21T06:14:55;10.70;99.90
24146;DHT22;12308;50.948;4.706;2024-02-21T06:17:20;10.60;99.90
24146;DHT22;12308;50.948;4.706;2024-02-21T06:19:46;10.50;99.90
24146;DHT22;12308;50.948;4.706;2024-02-21T06:22:12;10.60;99.90
24146;DHT22;12308;50.948;4.706;2024-02-21T06:24:38;10.60;99.90
24146;DHT22;12308;50.948;4.706;2024-02-21T06:27:04;10.50;99.90
24146;DHT22;12308;50.948;4.706;2024-02-21T06:29:34;10.50;99.90
24146;DHT22;12308;50.948;4.706;2024-02-21T06:32:00;10.50;99.90
24146;DHT22;12308;50.948;4.706;2024-02-21T06:34:26;10.50;99.90
24146;DHT22;12308;50.948;4.706;2024-02-21T06:36:52;10.60;99.90
24146;DHT22;12308;50.948;4.706;2024-02-21T06:39:17;10.60;99.90
24146;DHT22;12308;50.948;4.706;2024-02-21T06:41:43;10.60;99.90
24146;DHT22;12308;50.948;4.706;2024-02-21T06:44:09;10.60;99.90
24146;DHT22;12308;50.948;4.706;2024-02-21T06:46:35;10.70;99.90
24146;DHT22;12308;50.948;4.706;2024-02-21T06:49:01;10.70;99.90
24146;DHT22;12308;50.948;4.706;2024-02-21T06:51:29;10.70;99.90
24146;DHT22;12308;50.948;4.706;2024-02-21T06:53:55;10.70;99.90
24146;DHT22;12308;50.948;4.706;2024-02-21T06:56:23;10.70;99.90
24146;DHT22;12308;50.948;4.706;2024-02-21T06:58:52;10.60;99.90
24146;DHT22;12308;50.948;4.706;2024-02-21T07:01:18;10.60;99.90
24146;DHT22;12308;50.948;4.706;2024-02-21T07:03:43;10.60;99.90
24146;DHT22;12308;50.948;4.706;2024-02-21T07:06:09;10.70;99.90
24146;DHT22;12308;50.948;4.706;2024-02-21T07:08:35;10.70;99.90
24146;DHT22;12308;50.948;4.706;2024-02-21T07:11:00;10.70;99.90
24146;DHT22;12308;50.948;4.706;2024-02-21T07:13:26;10.80;99.90
24146;DHT22;12308;50.948;4.706;2024-02-21T07:15:52;10.80;99.90
24146;DHT22;12308;50.948;4.706;2024-02-21T07:18:17;10.70;99.90
24146;DHT22;12308;50.948;4.706;2024-02-21T07:20:43;10.70;99.90
24146;DHT22;12308;50.948;4.706;2024-02-21T07:23:09;10.70;99.90
24146;DHT22;12308;50.948;4.706;2024-02-21T07:25:34;10.70;99.90
24146;DHT22;12308;50.948;4.706;2024-02-21T07:28:00;10.60;99.90
24146;DHT22;12308;50.948;4.706;2024-02-21T07:30:26;10.80;99.90
24146;DHT22;12308;50.948;4.706;2024-02-21T07:32:52;10.60;99.90
24146;DHT22;12308;50.948;4.706;2024-02-21T07:35:18;10.50;99.90
24146;DHT22;12308;50.948;4.706;2024-02-21T07:37:43;10.50;99.90
24146;DHT22;12308;50.948;4.706;2024-02-21T07:40:13;10.50;99.90
24146;DHT22;12308;50.948;4.706;2024-02-21T07:42:40;10.40;99.90
24146;DHT22;12308;50.948;4.706;2024-02-21T07:45:09;10.60;99.90
24146;DHT22;12308;50.948;4.706;2024-02-21T07:47:36;10.50;99.90
24146;DHT22;12308;50.948;4.706;2024-02-21T07:50:03;10.50;99.90
24146;DHT22;12308;50.948;4.706;2024-02-21T07:52:29;10.50;99.90
24146;DHT22;12308;50.948;4.706;2024-02-21T07:54:55;10.30;99.90
24146;DHT22;12308;50.948;4.706;2024-02-21T07:57:20;10.20;99.90
24146;DHT22;12308;50.948;4.706;2024-02-21T07:59:47;10.30;99.90
24146;DHT22;12308;50.948;4.706;2024-02-21T08:02:16;10.40;99.90
24146;DHT22;12308;50.948;4.706;2024-02-21T08:04:42;10.40;99.90
24146;DHT22;12308;50.948;4.706;2024-02-21T08:07:09;10.20;99.90
24146;DHT22;12308;50.948;4.706;2024-02-21T08:09:35;10.30;99.90
24146;DHT22;12308;50.948;4.706;2024-02-21T08:12:04;10.40;99.90
24146;DHT22;12308;50.948;4.706;2024-02-21T08:14:29;10.50;99.90
24146;DHT22;12308;50.948;4.706;2024-02-21T08:16:55;10.50;99.90
24146;DHT22;12308;50.948;4.706;2024-02-21T08:19:21;10.50;99.90
24146;DHT22;12308;50.948;4.706;2024-02-21T08:21:50;10.80;99.90
24146;DHT22;12308;50.948;4.706;2024-02-21T08:24:16;10.70;99.90
24146;DHT22;12308;50.948;4.706;2024-02-21T08:26:42;10.80;99.90
24146;DHT22;12308;50.948;4.706;2024-02-21T08:29:08;10.80;99.90
24146;DHT22;12308;50.948;4.706;2024-02-21T08:31:33;10.80;99.90
24146;DHT22;12308;50.948;4.706;2024-02-21T08:34:03;10.70;99.90
24146;DHT22;12308;50.948;4.706;2024-02-21T08:36:36;10.80;99.90
24146;DHT22;12308;50.948;4.706;2024-02-21T08:39:02;10.80;99.90
24146;DHT22;12308;50.948;4.706;2024-02-21T08:41:31;10.80;99.90
24146;DHT22;12308;50.948;4.706;2024-02-21T08:43:56;10.90;99.90
24146;DHT22;12308;50.948;4.706;2024-02-21T08:46:23;11.10;99.90
24146;DHT22;12308;50.948;4.706;2024-02-21T08:48:50;11.00;99.90
24146;DHT22;12308;50.948;4.706;2024-02-21T08:51:16;11.00;99.90
24146;DHT22;12308;50.948;4.706;2024-02-21T08:53:43;11.00;99.90
24146;DHT22;12308;50.948;4.706;2024-02-21T08:56:09;11.10;99.90
24146;DHT22;12308;50.948;4.706;2024-02-21T08:58:36;11.10;99.90
24146;DHT22;12308;50.948;4.706;2024-02-21T09:01:05;11.00;99.90
24146;DHT22;12308;50.948;4.706;2024-02-21T09:03:38;11.00;99.90
24146;DHT22;12308;50.948;4.706;2024-02-21T09:06:07;11.10;99.90
24146;DHT22;12308;50.948;4.706;2024-02-21T09:08:33;11.20;99.90
24146;DHT22;12308;50.948;4.706;2024-02-21T09:11:02;11.10;99.90
24146;DHT22;12308;50.948;4.706;2024-02-21T09:13:28;11.10;99.90
24146;DHT22;12308;50.948;4.706;2024-02-21T09:15:54;11.10;99.90
24146;DHT22;12308;50.948;4.706;2024-02-21T09:18:20;11.20;99.90
24146;DHT22;12308;50.948;4.706;2024-02-21T09:20:45;11.30;99.90
24146;DHT22;12308;50.948;4.706;2024-02-21T09:23:11;11.30;99.90
24146;DHT22;12308;50.948;4.706;2024-02-21T09:25:37;11.30;99.90
24146;DHT22;12308;50.948;4.706;2024-02-21T09:28:03;11.40;99.90
24146;DHT22;12308;50.948;4.706;2024-02-21T09:30:31;11.50;99.90
24146;DHT22;12308;50.948;4.706;2024-02-21T09:32:57;11.70;99.90
24146;DHT22;12308;50.948;4.706;2024-02-21T09:35:25;11.70;99.90
24146;DHT22;12308;50.948;4.706;2024-02-21T09:37:53;11.80;99.90
24146;DHT22;12308;50.948;4.706;2024-02-21T09:40:19;11.70;99.90
24146;DHT22;12308;50.948;4.706;2024-02-21T09:42:47;11.80;99.90
24146;DHT22;12308;50.948;4.706;2024-02-21T09:45:22;11.80;99.90
24146;DHT22;12308;50.948;4.706;2024-02-21T09:50:49;11.90;99.90
24146;DHT22;12308;50.948;4.706;2024-02-21T09:53:16;12.10;99.90
24146;DHT22;12308;50.948;4.706;2024-02-21T09:55:43;12.10;99.90
24146;DHT22;12308;50.948;4.706;2024-02-21T09:58:09;12.10;99.90
24146;DHT22;12308;50.948;4.706;2024-02-21T10:00:36;12.30;99.90
24146;DHT22;12308;50.948;4.706;2024-02-21T10:03:02;12.30;99.90
24146;DHT22;12308;50.948;4.706;2024-02-21T10:05:36;12.50;99.90
24146;DHT22;12308;50.948;4.706;2024-02-21T10:08:03;12.50;99.90
24146;DHT22;12308;50.948;4.706;2024-02-21T10:10:29;12.50;99.90
24146;DHT22;12308;50.948;4.706;2024-02-21T10:12:56;12.60;99.90
24146;DHT22;12308;50.948;4.706;2024-02-21T10:15:24;12.60;99.90
24146;DHT22;12308;50.948;4.706;2024-02-21T10:18:01;12.70;99.90
24146;DHT22;12308;50.948;4.706;2024-02-21T10:20:29;12.50;99.90
24146;DHT22;12308;50.948;4.706;2024-02-21T10:23:05;12.60;99.90
24146;DHT22;12308;50.948;4.706;2024-02-21T10:25:36;12.70;99.90
24146;DHT22;12308;50.948;4.706;2024-02-21T10:28:07;12.70;99.90
24146;DHT22;12308;50.948;4.706;2024-02-21T10:30:33;12.60;99.90
24146;DHT22;12308;50.948;4.706;2024-02-21T10:32:58;12.60;99.90
24146;DHT22;12308;50.948;4.706;2024-02-21T10:35:27;12.70;99.90
24146;DHT22;12308;50.948;4.706;2024-02-21T10:37:57;12.80;99.90
24146;DHT22;12308;50.948;4.706;2024-02-21T10:40:24;12.90;99.90
24146;DHT22;12308;50.948;4.706;2024-02-21T10:42:58;12.90;99.90
24146;DHT22;12308;50.948;4.706;2024-02-21T10:45:36;12.80;99.90
24146;DHT22;12308;50.948;4.706;2024-02-21T10:48:12;12.90;99.90
24146;DHT22;12308;50.948;4.706;2024-02-21T10:50:57;12.90;99.90
24146;DHT22;12308;50.948;4.706;2024-02-21T10:53:38;12.90;99.90
24146;DHT22;12308;50.948;4.706;2024-02-21T10:56:29;12.90;99.90
24146;DHT22;12308;50.948;4.706;2024-02-21T10:58:59;13.00;99.90
24146;DHT22;12308;50.948;4.706;2024-02-21T11:01:26;13.00;99.90
24146;DHT22;12308;50.948;4.706;2024-02-21T11:03:55;12.80;99.90
24146;DHT22;12308;50.948;4.706;2024-02-21T11:06:22;12.90;99.90
24146;DHT22;12308;50.948;4.706;2024-02-21T11:09:05;12.90;99.90
24146;DHT22;12308;50.948;4.706;2024-02-21T11:11:37;12.70;99.90
24146;DHT22;12308;50.948;4.706;2024-02-21T11:14:07;12.80;99.90
24146;DHT22;12308;50.948;4.706;2024-02-21T11:16:38;12.90;99.90
24146;DHT22;12308;50.948;4.706;2024-02-21T11:19:05;13.00;99.90
24146;DHT22;12308;50.948;4.706;2024-02-21T11:21:38;13.10;99.90
24146;DHT22;12308;50.948;4.706;2024-02-21T11:24:04;13.00;99.90
24146;DHT22;12308;50.948;4.706;2024-02-21T11:26:30;13.10;99.90
24146;DHT22;12308;50.948;4.706;2024-02-21T11:31:23;12.80;99.90
24146;DHT22;12308;50.948;4.706;2024-02-21T11:33:49;12.70;99.90
24146;DHT22;12308;50.948;4.706;2024-02-21T11:36:26;12.80;99.90
24146;DHT22;12308;50.948;4.706;2024-02-21T11:38:52;12.80;99.90
24146;DHT22;12308;50.948;4.706;2024-02-21T11:41:19;12.80;99.90
24146;DHT22;12308;50.948;4.706;2024-02-21T11:43:48;12.90;99.90
24146;DHT22;12308;50.948;4.706;2024-02-21T11:46:14;13.00;99.90
24146;DHT22;12308;50.948;4.706;2024-02-21T11:48:41;12.90;99.90
24146;DHT22;12308;50.948;4.706;2024-02-21T11:51:07;13.00;99.90
24146;DHT22;12308;50.948;4.706;2024-02-21T11:53:32;12.90;99.90
24146;DHT22;12308;50.948;4.706;2024-02-21T11:55:58;13.00;99.90
24146;DHT22;12308;50.948;4.706;2024-02-21T11:58:24;13.10;99.90
24146;DHT22;12308;50.948;4.706;2024-02-21T12:00:52;13.10;99.90
24146;DHT22;12308;50.948;4.706;2024-02-21T12:03:17;13.10;99.90
24146;DHT22;12308;50.948;4.706;2024-02-21T12:05:43;13.20;99.90
24146;DHT22;12308;50.948;4.706;2024-02-21T12:08:09;13.10;99.90
24146;DHT22;12308;50.948;4.706;2024-02-21T12:10:35;13.00;99.90
24146;DHT22;12308;50.948;4.706;2024-02-21T12:13:11;12.80;99.90
24146;DHT22;12308;50.948;4.706;2024-02-21T12:15:39;12.60;99.90
24146;DHT22;12308;50.948;4.706;2024-02-21T12:18:06;12.60;99.90
24146;DHT22;12308;50.948;4.706;2024-02-21T12:20:31;12.60;99.90
24146;DHT22;12308;50.948;4.706;2024-02-21T12:23:01;12.60;99.90
24146;DHT22;12308;50.948;4.706;2024-02-21T12:25:28;12.60;99.90
24146;DHT22;12308;50.948;4.706;2024-02-21T12:27:54;12.70;99.90
24146;DHT22;12308;50.948;4.706;2024-02-21T12:30:21;12.80;99.90
24146;DHT22;12308;50.948;4.706;2024-02-21T12:32:47;12.60;99.90
24146;DHT22;12308;50.948;4.706;2024-02-21T12:35:14;12.60;99.90
24146;DHT22;12308;50.948;4.706;2024-02-21T12:37:40;12.50;99.90
24146;DHT22;12308;50.948;4.706;2024-02-21T12:40:08;12.30;99.90
24146;DHT22;12308;50.948;4.706;2024-02-21T12:42:36;12.30;99.90
24146;DHT22;12308;50.948;4.706;2024-02-21T12:45:05;12.40;99.90
24146;DHT22;12308;50.948;4.706;2024-02-21T12:47:30;12.50;99.90
24146;DHT22;12308;50.948;4.706;2024-02-21T12:49:56;12.50;99.90
24146;DHT22;12308;50.948;4.706;2024-02-21T12:52:22;12.50;99.90
24146;DHT22;12308;50.948;4.706;2024-02-21T12:54:47;12.50;99.90
24146;DHT22;12308;50.948;4.706;2024-02-21T12:57:13;12.50;99.90
24146;DHT22;12308;50.948;4.706;2024-02-21T12:59:39;12.50;99.90
24146;DHT22;12308;50.948;4.706;2024-02-21T13:02:06;12.40;99.90
24146;DHT22;12308;50.948;4.706;2024-02-21T13:04:31;12.40;99.90
24146;DHT22;12308;50.948;4.706;2024-02-21T13:06:57;12.70;99.90
24146;DHT22;12308;50.948;4.706;2024-02-21T13:09:23;12.70;99.90
24146;DHT22;12308;50.948;4.706;2024-02-21T13:11:48;12.70;99.90
24146;DHT22;12308;50.948;4.706;2024-02-21T13:14:16;12.60;99.90
24146;DHT22;12308;50.948;4.706;2024-02-21T13:16:42;12.60;99.90
24146;DHT22;12308;50.948;4.706;2024-02-21T13:19:08;12.70;99.90
24146;DHT22;12308;50.948;4.706;2024-02-21T13:21:37;12.60;99.90
24146;DHT22;12308;50.948;4.706;2024-02-21T13:24:03;12.60;99.90
24146;DHT22;12308;50.948;4.706;2024-02-21T13:26:29;12.70;99.90
24146;DHT22;12308;50.948;4.706;2024-02-21T13:28:54;12.70;99.90
24146;DHT22;12308;50.948;4.706;2024-02-21T13:31:21;12.90;99.90
24146;DHT22;12308;50.948;4.706;2024-02-21T13:33:46;12.90;99.90
24146;DHT22;12308;50.948;4.706;2024-02-21T13:36:12;13.10;99.90
24146;DHT22;12308;50.948;4.706;2024-02-21T13:38:38;13.10;99.90
24146;DHT22;12308;50.948;4.706;2024-02-21T13:41:05;13.00;99.90
24146;DHT22;12308;50.948;4.706;2024-02-21T13:43:32;13.00;99.90
24146;DHT22;12308;50.948;4.706;2024-02-21T13:45:58;12.80;99.90
24146;DHT22;12308;50.948;4.706;2024-02-21T13:48:24;12.80;99.90
24146;DHT22;12308;50.948;4.706;2024-02-21T13:50:50;12.80;99.90
24146;DHT22;12308;50.948;4.706;2024-02-21T13:53:16;12.90;99.90
24146;DHT22;12308;50.948;4.706;2024-02-21T13:55:44;12.90;99.90
24146;DHT22;12308;50.948;4.706;2024-02-21T13:58:10;12.90;99.90
24146;DHT22;12308;50.948;4.706;2024-02-21T14:00:36;12.90;99.90
24146;DHT22;12308;50.948;4.706;2024-02-21T14:03:02;13.00;99.90
24146;DHT22;12308;50.948;4.706;2024-02-21T14:05:28;12.70;99.90
24146;DHT22;12308;50.948;4.706;2024-02-21T14:07:53;12.60;99.90
24146;DHT22;12308;50.948;4.706;2024-02-21T14:10:20;12.50;99.90
24146;DHT22;12308;50.948;4.706;2024-02-21T14:12:46;12.50;99.90
24146;DHT22;12308;50.948;4.706;2024-02-21T14:15:14;12.40;99.90
24146;DHT22;12308;50.948;4.706;2024-02-21T14:17:39;12.30;99.90
24146;DHT22;12308;50.948;4.706;2024-02-21T14:20:07;12.40;99.90
24146;DHT22;12308;50.948;4.706;2024-02-21T14:22:33;12.40;99.90
24146;DHT22;12308;50.948;4.706;2024-02-21T14:25:00;12.30;99.90
24146;DHT22;12308;50.948;4.706;2024-02-21T14:27:26;12.20;99.90
24146;DHT22;12308;50.948;4.706;2024-02-21T14:29:52;12.20;99.90
24146;DHT22;12308;50.948;4.706;2024-02-21T14:32:18;12.00;99.90
24146;DHT22;12308;50.948;4.706;2024-02-21T14:34:45;12.00;99.90
24146;DHT22;12308;50.948;4.706;2024-02-21T14:37:11;11.80;99.90
24146;DHT22;12308;50.948;4.706;2024-02-21T14:39:37;11.90;99.90
24146;DHT22;12308;50.948;4.706;2024-02-21T14:42:03;11.80;99.90
24146;DHT22;12308;50.948;4.706;2024-02-21T14:44:29;11.90;99.90
24146;DHT22;12308;50.948;4.706;2024-02-21T14:46:54;11.90;99.90
24146;DHT22;12308;50.948;4.706;2024-02-21T14:49:20;11.70;99.90
24146;DHT22;12308;50.948;4.706;2024-02-21T14:51:45;11.70;99.90
24146;DHT22;12308;50.948;4.706;2024-02-21T14:54:11;11.60;99.90
24146;DHT22;12308;50.948;4.706;2024-02-21T14:56:36;11.50;99.90
24146;DHT22;12308;50.948;4.706;2024-02-21T14:59:02;11.60;99.90
24146;DHT22;12308;50.948;4.706;2024-02-21T15:01:29;11.60;99.90
24146;DHT22;12308;50.948;4.706;2024-02-21T15:03:55;11.50;99.90
24146;DHT22;12308;50.948;4.706;2024-02-21T15:06:21;11.50;99.90
24146;DHT22;12308;50.948;4.706;2024-02-21T15:08:46;11.50;99.90
24146;DHT22;12308;50.948;4.706;2024-02-21T15:11:14;11.30;99.90
24146;DHT22;12308;50.948;4.706;2024-02-21T15:13:39;11.40;99.90
24146;DHT22;12308;50.948;4.706;2024-02-21T15:16:05;11.40;99.90
24146;DHT22;12308;50.948;4.706;2024-02-21T15:18:31;11.40;99.90
24146;DHT22;12308;50.948;4.706;2024-02-21T15:21:03;11.40;99.90
24146;DHT22;12308;50.948;4.706;2024-02-21T15:23:29;11.40;99.90
24146;DHT22;12308;50.948;4.706;2024-02-21T15:25:55;11.50;99.90
24146;DHT22;12308;50.948;4.706;2024-02-21T15:28:21;11.30;99.90
24146;DHT22;12308;50.948;4.706;2024-02-21T15:30:47;11.20;99.90
24146;DHT22;12308;50.948;4.706;2024-02-21T15:33:12;11.20;99.90
24146;DHT22;12308;50.948;4.706;2024-02-21T15:35:38;11.10;99.90